Time;durP1;ratioP1;P1;durP2;ratioP2;P2;SDS_P1;SDS_P2;PMS_P1;PMS_P2;Temp;Humidity;BMP_temperature;BMP_pressure;BME280_temperature;BME280_humidity;BME280_pressure;Samples;Min_cycle;Max_cycle;Signal;HPM_P1;HPM_P2
2023/04/17 00:00:14;;;;;;;106.23;54.70;;;11.10;99.90;;;;;;4956335;28;20419;-74
2023/04/17 00:02:39;;;;;;;106.50;54.80;;;11.10;99.90;;;;;;4973515;28;20560;-72
2023/04/17 00:05:08;;;;;;;94.93;52.60;;;11.10;99.90;;;;;;4974242;28;20735;-74
2023/04/17 00:07:37;;;;;;;100.95;53.38;;;11.10;99.60;;;;;;4974310;28;20435;-74
2023/04/17 00:10:06;;;;;;;97.20;53.42;;;11.10;99.90;;;;;;4974089;28;20406;-74
2023/04/17 00:12:31;;;;;;;97.82;53.80;;;11.20;99.90;;;;;;4974020;28;20388;-72
2023/04/17 00:14:57;;;;;;;95.10;53.27;;;11.10;99.90;;;;;;4974455;28;20492;-73
2023/04/17 00:17:22;;;;;;;94.60;50.42;;;11.10;99.90;;;;;;4976647;28;20389;-72
2023/04/17 00:19:49;;;;;;;89.95;49.65;;;11.10;99.80;;;;;;4989841;28;20444;-73
2023/04/17 00:22:14;;;;;;;90.75;49.25;;;11.10;99.90;;;;;;4988148;28;20402;-72
2023/04/17 00:24:40;;;;;;;94.93;51.60;;;11.10;99.50;;;;;;4978585;28;20460;-73
2023/04/17 00:27:05;;;;;;;94.10;50.50;;;11.10;99.90;;;;;;4974910;28;20400;-74
2023/04/17 00:29:32;;;;;;;82.63;46.60;;;11.10;99.90;;;;;;4973910;28;20399;-74
2023/04/17 00:31:58;;;;;;;92.82;50.90;;;11.10;99.30;;;;;;4973136;28;20410;-73
2023/04/17 00:34:24;;;;;;;88.25;49.42;;;11.10;99.90;;;;;;4973800;28;20384;-75
2023/04/17 00:36:49;;;;;;;91.10;50.50;;;11.10;99.90;;;;;;4973786;28;20406;-74
2023/04/17 00:39:15;;;;;;;83.60;51.00;;;11.10;99.90;;;;;;4974034;28;20408;-73
2023/04/17 00:41:41;;;;;;;96.40;50.93;;;11.20;99.90;;;;;;4973022;28;20474;-72
2023/04/17 00:44:06;;;;;;;88.13;50.80;;;11.20;99.80;;;;;;4974624;28;20427;-74
2023/04/17 00:46:32;;;;;;;85.00;48.13;;;11.10;99.60;;;;;;4973805;28;20826;-73
2023/04/17 00:48:58;;;;;;;91.28;50.08;;;11.10;99.50;;;;;;4973414;28;20396;-75
2023/04/17 00:51:24;;;;;;;86.93;48.45;;;11.10;99.70;;;;;;4972899;28;20428;-72
2023/04/17 00:53:50;;;;;;;86.63;47.60;;;11.10;99.50;;;;;;4973201;28;20486;-74
2023/04/17 00:56:16;;;;;;;95.47;50.45;;;11.10;99.50;;;;;;4955214;28;20393;-72
2023/04/17 00:58:43;;;;;;;85.07;48.63;;;11.10;99.90;;;;;;4972656;28;20802;-73
2023/04/17 01:01:08;;;;;;;91.18;46.08;;;11.20;99.00;;;;;;4971996;28;20401;-74
2023/04/17 01:03:34;;;;;;;91.35;48.67;;;11.10;98.10;;;;;;4972477;28;20390;-73
2023/04/17 01:06:00;;;;;;;85.68;47.92;;;11.10;98.90;;;;;;4972606;28;20396;-73
2023/04/17 01:08:26;;;;;;;83.37;47.80;;;11.10;98.60;;;;;;4972098;28;20458;-74
2023/04/17 01:10:52;;;;;;;84.15;45.55;;;11.10;98.40;;;;;;4971719;28;20404;-73
2023/04/17 01:13:17;;;;;;;79.22;45.88;;;11.10;97.30;;;;;;4972232;28;20391;-74
2023/04/17 01:15:43;;;;;;;83.43;46.08;;;11.00;98.70;;;;;;4972302;28;20423;-74
2023/04/17 01:18:09;;;;;;;80.32;45.30;;;11.00;98.80;;;;;;4972936;28;20388;-73
2023/04/17 01:20:35;;;;;;;86.38;48.15;;;11.00;99.20;;;;;;4979751;28;20467;-73
2023/04/17 01:23:01;;;;;;;82.00;44.40;;;11.00;99.40;;;;;;4984174;28;20419;-73
2023/04/17 01:25:27;;;;;;;75.70;44.58;;;11.00;98.20;;;;;;4986533;28;20719;-74
2023/04/17 01:27:53;;;;;;;86.43;44.60;;;11.00;98.30;;;;;;4986608;28;20396;-73
2023/04/17 01:30:19;;;;;;;79.22;44.85;;;11.00;97.60;;;;;;4987743;28;20392;-74
2023/04/17 01:32:45;;;;;;;76.32;44.50;;;11.00;98.10;;;;;;4987877;28;20458;-71
2023/04/17 01:35:10;;;;;;;71.13;41.45;;;11.00;97.80;;;;;;4979950;28;20400;-73
2023/04/17 01:37:36;;;;;;;75.28;42.50;;;11.00;96.40;;;;;;4981999;28;20447;-73
2023/04/17 01:40:05;;;;;;;78.72;44.85;;;11.00;96.90;;;;;;4986232;28;20890;-73
2023/04/17 01:42:31;;;;;;;76.25;41.67;;;11.00;99.00;;;;;;4980201;28;20376;-71
2023/04/17 01:44:57;;;;;;;73.68;42.47;;;10.90;97.80;;;;;;4986776;28;20395;-71
2023/04/17 01:47:22;;;;;;;76.72;43.72;;;10.90;98.00;;;;;;4985153;28;20385;-73
2023/04/17 01:49:48;;;;;;;75.65;42.15;;;10.90;98.70;;;;;;4994615;28;20390;-72
2023/04/17 01:52:13;;;;;;;81.07;46.07;;;10.90;98.80;;;;;;4964117;28;20479;-72
2023/04/17 01:54:39;;;;;;;80.60;45.43;;;10.90;99.90;;;;;;4954690;28;20843;-72
2023/04/17 01:57:04;;;;;;;78.50;43.80;;;10.90;98.80;;;;;;4971895;28;20801;-73
2023/04/17 01:59:30;;;;;;;77.57;44.33;;;11.00;97.90;;;;;;4971853;28;20913;-73
2023/04/17 02:01:56;;;;;;;79.83;44.30;;;10.90;98.20;;;;;;4972003;28;20859;-73
2023/04/17 02:04:21;;;;;;;83.45;46.65;;;10.90;98.40;;;;;;4975317;28;20741;-73
2023/04/17 02:06:47;;;;;;;71.77;45.07;;;11.00;98.30;;;;;;4975658;28;20444;-74
2023/04/17 02:09:12;;;;;;;73.00;43.80;;;11.00;98.00;;;;;;4975554;28;20512;-73
2023/04/17 02:11:38;;;;;;;82.50;44.63;;;11.00;98.30;;;;;;4974521;28;20704;-73
2023/04/17 02:14:03;;;;;;;77.40;44.53;;;11.00;96.10;;;;;;4975560;28;20478;-72
2023/04/17 02:16:30;;;;;;;75.88;45.55;;;11.00;96.40;;;;;;4976461;28;20419;-74
2023/04/17 02:18:56;;;;;;;76.20;45.88;;;11.00;97.10;;;;;;4976790;28;20495;-73
2023/04/17 02:21:21;;;;;;;81.18;44.28;;;11.00;96.70;;;;;;4976754;28;20504;-73
2023/04/17 02:23:47;;;;;;;73.50;43.15;;;11.10;94.60;;;;;;4976092;28;20392;-72
2023/04/17 02:26:13;;;;;;;74.15;43.83;;;11.00;94.80;;;;;;4975214;28;20488;-72
2023/04/17 02:28:38;;;;;;;78.68;44.40;;;11.00;96.20;;;;;;4974865;28;20392;-73
2023/04/17 02:31:07;;;;;;;78.38;46.38;;;11.00;96.10;;;;;;4974667;28;20881;-73
2023/04/17 02:33:38;;;;;;;77.03;47.05;;;11.00;96.40;;;;;;4975178;28;20404;-73
2023/04/17 02:36:05;;;;;;;78.07;46.08;;;11.00;95.70;;;;;;4975173;28;20392;-73
2023/04/17 02:38:30;;;;;;;85.20;46.28;;;11.00;96.40;;;;;;4974905;28;20411;-72
2023/04/17 02:40:57;;;;;;;88.17;48.20;;;11.10;94.80;;;;;;4974362;28;20466;-73
2023/04/17 02:43:22;;;;;;;78.93;47.90;;;10.90;94.80;;;;;;4974693;28;20435;-73
2023/04/17 02:45:48;;;;;;;83.43;48.20;;;10.90;96.10;;;;;;4974662;28;20389;-73
2023/04/17 02:48:14;;;;;;;90.43;46.23;;;10.90;96.40;;;;;;4975012;28;20420;-73
2023/04/17 02:50:39;;;;;;;87.50;49.10;;;10.90;95.50;;;;;;4975306;28;20396;-73
2023/04/17 02:53:05;;;;;;;85.30;48.43;;;10.90;96.50;;;;;;4978188;28;20416;-73
2023/04/17 02:55:31;;;;;;;82.80;48.37;;;10.90;96.70;;;;;;4994961;28;20529;-73
2023/04/17 02:57:56;;;;;;;78.70;46.47;;;10.90;96.20;;;;;;4983973;28;20475;-73
2023/04/17 03:00:22;;;;;;;81.60;47.67;;;10.90;96.10;;;;;;4957121;28;20542;-72
2023/04/17 03:02:48;;;;;;;89.15;47.53;;;10.90;97.00;;;;;;4974537;28;20392;-73
2023/04/17 03:05:15;;;;;;;81.63;48.03;;;10.90;96.00;;;;;;4974496;28;20388;-72
2023/04/17 03:07:41;;;;;;;93.75;49.38;;;10.80;95.80;;;;;;4974455;28;20380;-72
2023/04/17 03:10:08;;;;;;;90.18;50.22;;;10.80;96.50;;;;;;4956977;28;20468;-72
2023/04/17 03:12:33;;;;;;;83.05;48.03;;;10.80;97.40;;;;;;4973770;28;20418;-73
2023/04/17 03:14:59;;;;;;;88.17;49.80;;;10.80;96.50;;;;;;4977246;28;20392;-72
2023/04/17 03:17:25;;;;;;;91.53;52.45;;;10.80;97.20;;;;;;4978362;28;20400;-73
2023/04/17 03:19:50;;;;;;;87.88;50.50;;;10.80;97.20;;;;;;4978955;28;20419;-72
2023/04/17 03:22:16;;;;;;;85.40;50.63;;;10.90;96.70;;;;;;4962568;28;20404;-73
2023/04/17 03:24:41;;;;;;;88.88;48.97;;;10.90;95.30;;;;;;4985751;28;20393;-73
2023/04/17 03:27:07;;;;;;;88.30;49.88;;;10.90;95.00;;;;;;4989036;28;20737;-72
2023/04/17 03:29:33;;;;;;;91.45;51.00;;;10.80;95.80;;;;;;4986193;28;20396;-74
2023/04/17 03:31:58;;;;;;;85.05;48.65;;;10.80;96.20;;;;;;4977287;28;20498;-73
2023/04/17 03:34:27;;;;;;;92.22;53.22;;;10.80;95.50;;;;;;4982273;28;20416;-73
2023/04/17 03:36:52;;;;;;;93.20;51.90;;;10.80;97.70;;;;;;4981673;28;20480;-73
2023/04/17 03:39:18;;;;;;;95.53;50.97;;;10.80;96.50;;;;;;4981359;28;20458;-73
2023/04/17 03:41:43;;;;;;;94.77;51.23;;;10.80;96.30;;;;;;4980349;28;20452;-72
2023/04/17 03:44:09;;;;;;;93.37;51.67;;;10.90;95.40;;;;;;4981796;28;20463;-71
2023/04/17 03:46:36;;;;;;;94.30;51.80;;;10.80;95.40;;;;;;4981485;28;20459;-74
2023/04/17 03:49:01;;;;;;;89.55;50.00;;;10.80;96.20;;;;;;4979794;28;20462;-73
2023/04/17 03:51:27;;;;;;;86.93;50.50;;;10.80;95.30;;;;;;4980811;28;20475;-75
2023/04/17 03:53:52;;;;;;;94.03;51.83;;;10.80;95.80;;;;;;4979389;28;20399;-74
2023/04/17 03:56:18;;;;;;;90.53;52.33;;;10.70;97.50;;;;;;4980412;28;20423;-75
2023/04/17 03:58:44;;;;;;;91.20;51.10;;;10.60;97.30;;;;;;4980254;28;20416;-74
2023/04/17 04:01:11;;;;;;;98.65;51.65;;;10.60;98.30;;;;;;4979976;28;20460;-74
2023/04/17 04:03:37;;;;;;;90.38;53.10;;;10.60;99.30;;;;;;4979656;28;20400;-74
2023/04/17 04:06:02;;;;;;;99.50;55.38;;;10.50;98.80;;;;;;4978392;28;20927;-74
2023/04/17 04:08:28;;;;;;;101.20;54.23;;;10.40;99.90;;;;;;4961175;28;20435;-74
2023/04/17 04:10:54;;;;;;;93.57;51.50;;;10.40;99.90;;;;;;4979389;28;20400;-73
2023/04/17 04:13:19;;;;;;;97.33;51.07;;;10.50;99.80;;;;;;4979580;28;20392;-74
2023/04/17 04:15:45;;;;;;;95.70;52.50;;;10.50;99.90;;;;;;4980938;28;20400;-73
2023/04/17 04:18:10;;;;;;;89.00;52.60;;;10.50;99.90;;;;;;4979563;28;20388;-72
2023/04/17 04:20:36;;;;;;;91.87;50.97;;;10.40;99.90;;;;;;4980447;28;20391;-72
2023/04/17 04:23:03;;;;;;;90.10;52.27;;;10.50;99.90;;;;;;4980274;28;20427;-73
2023/04/17 04:25:29;;;;;;;99.80;52.38;;;10.50;99.60;;;;;;4979487;28;20467;-74
2023/04/17 04:27:55;;;;;;;92.70;53.25;;;10.50;99.90;;;;;;4979295;28;20392;-74
2023/04/17 04:30:24;;;;;;;90.17;51.10;;;10.50;99.60;;;;;;4978965;28;20399;-72
2023/04/17 04:32:50;;;;;;;97.97;51.92;;;10.60;99.80;;;;;;4979198;28;20419;-74
2023/04/17 04:35:16;;;;;;;86.57;50.10;;;10.60;98.20;;;;;;4980590;28;20434;-74
2023/04/17 04:37:45;;;;;;;92.23;50.10;;;10.60;97.80;;;;;;4981090;28;20407;-74
2023/04/17 04:40:11;;;;;;;91.72;49.78;;;10.60;97.70;;;;;;4982209;28;20448;-74
2023/04/17 04:42:38;;;;;;;94.43;52.53;;;10.50;97.90;;;;;;4981118;28;20419;-74
2023/04/17 04:45:05;;;;;;;99.70;53.55;;;10.50;98.40;;;;;;4964232;28;20392;-74
2023/04/17 04:47:30;;;;;;;105.10;54.78;;;10.50;98.30;;;;;;4985666;28;20399;-74
2023/04/17 04:49:56;;;;;;;97.05;52.30;;;10.50;98.60;;;;;;4988479;28;20396;-74
2023/04/17 04:52:21;;;;;;;92.15;51.97;;;10.60;97.60;;;;;;4981471;28;20388;-75
2023/04/17 04:54:47;;;;;;;99.55;54.78;;;10.60;97.20;;;;;;4981944;28;20403;-74
2023/04/17 04:57:12;;;;;;;89.68;52.38;;;10.50;98.80;;;;;;4973719;28;20400;-73
2023/04/17 04:59:38;;;;;;;102.25;55.05;;;10.50;98.40;;;;;;4972481;28;20408;-73
2023/04/17 05:02:04;;;;;;;95.70;52.63;;;10.50;99.60;;;;;;4972205;28;20462;-74
2023/04/17 05:04:29;;;;;;;101.00;54.95;;;10.50;98.20;;;;;;4972662;28;20384;-73
2023/04/17 05:06:56;;;;;;;99.90;53.90;;;10.50;98.50;;;;;;4972397;28;20480;-74
2023/04/17 05:09:21;;;;;;;92.47;53.83;;;10.50;97.40;;;;;;4972560;28;20410;-74
2023/04/17 05:11:47;;;;;;;95.35;53.38;;;10.50;97.80;;;;;;4971924;28;20388;-74
2023/04/17 05:14:12;;;;;;;99.43;51.03;;;10.50;97.40;;;;;;4972216;28;20452;-73
2023/04/17 05:16:39;;;;;;;107.78;58.00;;;10.40;97.50;;;;;;4972257;28;20857;-73
2023/04/17 05:19:05;;;;;;;103.40;56.95;;;10.40;99.40;;;;;;4972415;28;20420;-74
2023/04/17 05:21:31;;;;;;;98.05;55.63;;;10.40;99.90;;;;;;4975756;28;20826;-72
2023/04/17 05:23:56;;;;;;;98.45;54.33;;;10.40;99.30;;;;;;4956346;28;20392;-73
2023/04/17 05:26:22;;;;;;;99.77;56.50;;;10.50;97.20;;;;;;4975877;28;20392;-73
2023/04/17 05:28:47;;;;;;;103.10;54.40;;;10.50;99.30;;;;;;4984452;28;20396;-72
2023/04/17 05:31:13;;;;;;;97.23;55.03;;;10.50;97.00;;;;;;4981183;28;20400;-73
2023/04/17 05:33:39;;;;;;;102.97;56.28;;;10.60;95.90;;;;;;4972930;28;20404;-74
2023/04/17 05:36:06;;;;;;;99.50;54.38;;;10.60;95.50;;;;;;4972907;28;20471;-72
2023/04/17 05:38:31;;;;;;;94.20;54.00;;;10.60;94.40;;;;;;4975780;28;20423;-74
2023/04/17 05:40:57;;;;;;;97.88;54.72;;;10.60;94.40;;;;;;4975556;28;20395;-73
2023/04/17 05:43:23;;;;;;;98.00;53.47;;;10.70;94.30;;;;;;4959037;28;20391;-73
2023/04/17 05:45:49;;;;;;;103.10;56.80;;;10.70;93.60;;;;;;4975975;28;20418;-73
2023/04/17 05:48:15;;;;;;;107.40;57.47;;;10.70;93.80;;;;;;4976332;28;20383;-72
2023/04/17 05:50:40;;;;;;;99.90;53.60;;;10.70;93.50;;;;;;4975861;28;20392;-72
2023/04/17 05:53:06;;;;;;;102.55;55.75;;;10.70;92.30;;;;;;4975417;28;20419;-74
2023/04/17 05:55:31;;;;;;;104.63;56.00;;;10.80;92.00;;;;;;4976104;28;20474;-72
2023/04/17 05:57:57;;;;;;;102.40;56.85;;;10.80;91.80;;;;;;4975964;28;20426;-73
2023/04/17 06:00:23;;;;;;;102.55;57.97;;;10.80;92.10;;;;;;4976352;28;20404;-73
2023/04/17 06:02:49;;;;;;;108.65;57.05;;;10.80;91.60;;;;;;4975617;28;20472;-73
2023/04/17 06:05:16;;;;;;;101.43;54.72;;;10.80;91.70;;;;;;4976605;28;20798;-74
2023/04/17 06:07:42;;;;;;;105.53;58.28;;;10.80;92.00;;;;;;4958355;28;20415;-73
2023/04/17 06:10:09;;;;;;;103.72;55.13;;;10.70;91.50;;;;;;4975626;28;20460;-73
2023/04/17 06:12:35;;;;;;;105.80;56.17;;;10.70;90.70;;;;;;4975864;28;20412;-72
2023/04/17 06:15:02;;;;;;;101.60;56.53;;;10.70;90.40;;;;;;4976126;28;20487;-73
2023/04/17 06:17:29;;;;;;;93.15;54.08;;;10.80;90.60;;;;;;4976683;28;20388;-74
2023/04/17 06:19:54;;;;;;;104.47;55.78;;;10.90;87.50;;;;;;4975980;28;20424;-72
2023/04/17 06:22:20;;;;;;;91.25;54.22;;;11.00;86.80;;;;;;4975786;28;20392;-73
2023/04/17 06:24:46;;;;;;;85.47;50.80;;;11.00;86.40;;;;;;4976794;28;20384;-74
2023/04/17 06:27:11;;;;;;;87.30;49.83;;;11.20;84.60;;;;;;4980542;28;20393;-74
2023/04/17 06:29:37;;;;;;;83.68;49.92;;;11.20;81.40;;;;;;4982826;28;20467;-74
2023/04/17 06:32:02;;;;;;;79.97;47.67;;;11.30;79.60;;;;;;4987755;28;20419;-73
2023/04/17 06:34:28;;;;;;;74.87;46.10;;;11.30;78.30;;;;;;4990267;28;20392;-73
2023/04/17 06:36:53;;;;;;;70.93;46.10;;;11.50;77.90;;;;;;4994101;28;20404;-71
2023/04/17 06:39:20;;;;;;;85.07;48.43;;;11.70;74.70;;;;;;4991995;28;20416;-74
2023/04/17 06:41:47;;;;;;;75.13;47.55;;;11.70;72.50;;;;;;4982423;28;20407;-72
2023/04/17 06:44:13;;;;;;;73.07;44.80;;;11.70;73.20;;;;;;4977562;28;20388;-73
2023/04/17 06:46:38;;;;;;;71.18;43.65;;;11.60;70.40;;;;;;4976556;28;20395;-73
2023/04/17 06:49:04;;;;;;;84.75;46.85;;;11.50;71.60;;;;;;4975343;28;20395;-73
2023/04/17 06:51:29;;;;;;;66.18;42.13;;;11.60;72.30;;;;;;4957819;28;20411;-72
2023/04/17 06:53:55;;;;;;;68.13;43.42;;;11.60;70.70;;;;;;4975280;28;20432;-72
2023/04/17 06:56:23;;;;;;;68.18;41.78;;;11.60;69.60;;;;;;4975670;28;20424;-73
2023/04/17 06:58:48;;;;;;;64.47;40.13;;;11.70;66.40;;;;;;4957731;28;20792;-72
2023/04/17 07:01:14;;;;;;;63.30;41.13;;;11.50;67.30;;;;;;4974624;28;20392;-72
2023/04/17 07:03:40;;;;;;;65.97;41.30;;;11.60;68.50;;;;;;4974476;28;20369;-72
2023/04/17 07:06:06;;;;;;;62.53;41.42;;;11.70;65.80;;;;;;4975531;28;20881;-74
2023/04/17 07:08:32;;;;;;;61.10;38.83;;;11.80;64.60;;;;;;4979515;28;20473;-73
2023/04/17 07:10:58;;;;;;;67.00;41.23;;;11.70;64.20;;;;;;4979611;28;20400;-72
2023/04/17 07:13:23;;;;;;;66.18;40.95;;;11.60;65.40;;;;;;4980903;28;20400;-73
2023/04/17 07:15:53;;;;;;;67.38;43.72;;;11.60;64.40;;;;;;4975725;28;20392;-72
2023/04/17 07:18:20;;;;;;;69.78;43.60;;;11.60;66.00;;;;;;4975128;28;20463;-72
2023/04/17 07:20:46;;;;;;;67.20;43.13;;;11.70;65.50;;;;;;4978120;28;20395;-74
2023/04/17 07:23:11;;;;;;;76.38;43.70;;;11.80;63.50;;;;;;4978669;28;20745;-72
2023/04/17 07:25:37;;;;;;;64.80;42.90;;;11.90;62.90;;;;;;4984833;28;20388;-74
2023/04/17 07:28:03;;;;;;;65.10;42.30;;;11.80;62.40;;;;;;4970610;28;20399;-73
2023/04/17 07:30:28;;;;;;;61.60;42.97;;;11.80;62.20;;;;;;4994387;28;20396;-73
2023/04/17 07:32:54;;;;;;;71.75;43.45;;;11.70;64.00;;;;;;4977820;28;20888;-73
2023/04/17 07:35:21;;;;;;;65.60;42.03;;;11.60;63.90;;;;;;4974969;28;20434;-73
2023/04/17 07:37:46;;;;;;;66.32;44.00;;;11.60;65.00;;;;;;4975340;28;20388;-72
2023/04/17 07:40:13;;;;;;;65.25;42.65;;;11.50;66.20;;;;;;4975475;28;20423;-72
2023/04/17 07:42:38;;;;;;;64.23;42.77;;;11.60;65.40;;;;;;4974454;28;20388;-72
2023/04/17 07:45:05;;;;;;;66.70;41.97;;;11.60;63.80;;;;;;4975290;28;20454;-73
2023/04/17 07:47:31;;;;;;;64.30;42.53;;;11.70;64.60;;;;;;4975121;28;20392;-73
2023/04/17 07:49:56;;;;;;;68.00;43.33;;;11.80;63.10;;;;;;4974917;28;20396;-74
2023/04/17 07:52:22;;;;;;;65.77;42.27;;;12.00;63.90;;;;;;4973593;28;20403;-72
2023/04/17 07:54:47;;;;;;;62.80;40.97;;;12.30;59.40;;;;;;4974561;28;20956;-74
2023/04/17 07:57:14;;;;;;;61.00;40.80;;;12.60;56.50;;;;;;4957176;28;20404;-72
2023/04/17 07:59:40;;;;;;;59.65;38.97;;;12.90;53.60;;;;;;4975640;28;20419;-72
2023/04/17 08:02:06;;;;;;;63.33;39.53;;;12.80;50.70;;;;;;4977586;28;20392;-73
2023/04/17 08:04:32;;;;;;;62.03;38.60;;;12.60;53.80;;;;;;4979190;28;20422;-72
2023/04/17 08:06:58;;;;;;;59.45;38.17;;;12.60;52.90;;;;;;4962046;28;20392;-72
2023/04/17 08:09:23;;;;;;;59.67;38.92;;;12.50;54.20;;;;;;4957669;28;20411;-72
2023/04/17 08:11:49;;;;;;;58.83;37.67;;;12.70;54.50;;;;;;4974029;28;20503;-73
2023/04/17 08:14:16;;;;;;;60.07;39.93;;;12.90;51.80;;;;;;4957478;28;20765;-72
2023/04/17 08:16:41;;;;;;;61.20;38.10;;;13.20;49.20;;;;;;4974608;28;20426;-74
2023/04/17 08:19:07;;;;;;;57.20;37.13;;;13.20;49.20;;;;;;4957743;28;20412;-73
2023/04/17 08:21:33;;;;;;;59.80;38.23;;;13.60;46.30;;;;;;4973480;28;20455;-73
2023/04/17 08:23:59;;;;;;;52.87;36.20;;;13.80;43.60;;;;;;4991608;28;20463;-73
2023/04/17 08:26:24;;;;;;;55.43;34.77;;;13.70;42.30;;;;;;4992758;28;20472;-73
2023/04/17 08:28:52;;;;;;;51.93;33.77;;;13.70;43.40;;;;;;4979050;28;20862;-72
2023/04/17 08:31:18;;;;;;;52.95;33.08;;;13.60;43.10;;;;;;4992894;28;20390;-72
2023/04/17 08:33:43;;;;;;;54.40;34.23;;;13.40;45.10;;;;;;4994288;28;20408;-72
2023/04/17 08:36:09;;;;;;;52.95;33.97;;;13.40;45.70;;;;;;4994537;28;20384;-72
2023/04/17 08:38:35;;;;;;;54.47;33.80;;;13.60;43.20;;;;;;4978373;28;20493;-71
2023/04/17 08:41:04;;;;;;;44.03;31.17;;;13.80;41.90;;;;;;4978558;28;20404;-71
2023/04/17 08:43:33;;;;;;;49.38;32.05;;;14.10;38.80;;;;;;4995972;28;20387;-71
2023/04/17 08:45:59;;;;;;;45.27;29.80;;;14.50;38.00;;;;;;4995731;28;20411;-71
2023/04/17 08:48:25;;;;;;;46.20;30.43;;;14.90;33.30;;;;;;4995335;28;20396;-72
2023/04/17 08:50:52;;;;;;;43.17;30.23;;;15.00;33.00;;;;;;4994676;28;20427;-71
2023/04/17 08:53:19;;;;;;;47.63;30.25;;;15.20;31.20;;;;;;4994986;28;20400;-72
2023/04/17 08:55:45;;;;;;;48.80;32.63;;;15.10;32.70;;;;;;4995201;28;20392;-72
2023/04/17 08:58:13;;;;;;;48.78;32.08;;;15.00;33.50;;;;;;4994626;28;20412;-72
2023/04/17 09:00:40;;;;;;;46.90;30.95;;;15.10;34.30;;;;;;4991338;28;20616;-72
2023/04/17 09:03:09;;;;;;;47.75;30.65;;;15.20;32.20;;;;;;4982445;28;20806;-74
2023/04/17 09:05:36;;;;;;;42.65;29.50;;;15.10;31.30;;;;;;4974934;28;20758;-74
2023/04/17 09:08:08;;;;;;;51.50;30.20;;;15.00;30.40;;;;;;4974809;28;20899;-74
2023/04/17 09:10:41;;;;;;;47.25;30.05;;;15.00;31.90;;;;;;4975555;28;20384;-72
2023/04/17 09:13:08;;;;;;;44.28;28.77;;;15.10;30.70;;;;;;4973047;28;20388;-72
2023/04/17 09:15:34;;;;;;;46.72;29.88;;;15.10;30.60;;;;;;4974060;28;20407;-73
2023/04/17 09:18:00;;;;;;;41.50;27.58;;;15.30;30.70;;;;;;4973227;28;20411;-73
2023/04/17 09:20:26;;;;;;;43.60;28.05;;;15.30;28.90;;;;;;4973426;28;20403;-74
2023/04/17 09:22:59;;;;;;;35.65;24.70;;;15.20;29.00;;;;;;4973016;28;20750;-74
2023/04/17 09:25:26;;;;;;;37.17;26.60;;;15.20;28.20;;;;;;4973931;28;20902;-74
2023/04/17 09:27:52;;;;;;;38.95;25.73;;;15.40;27.90;;;;;;4975855;28;20749;-74
2023/04/17 09:30:18;;;;;;;42.40;26.92;;;15.50;26.60;;;;;;4974282;28;20404;-73
2023/04/17 09:32:43;;;;;;;39.40;28.30;;;15.60;26.80;;;;;;4974309;28;20415;-74
2023/04/17 09:35:09;;;;;;;42.00;26.70;;;15.90;26.20;;;;;;4955598;28;20463;-73
2023/04/17 09:37:51;;;;;;;37.27;25.40;;;16.10;24.80;;;;;;4972146;28;20894;-73
2023/04/17 09:40:22;;;;;;;33.60;24.70;;;16.10;24.10;;;;;;4972242;28;20905;-73
2023/04/17 09:43:01;;;;;;;32.53;22.27;;;15.90;23.30;;;;;;4971494;28;20486;-74
2023/04/17 09:45:34;;;;;;;33.53;21.50;;;16.00;21.50;;;;;;4972684;28;20457;-73
2023/04/17 09:48:01;;;;;;;38.15;24.45;;;15.60;22.50;;;;;;4972429;28;20400;-73
2023/04/17 09:50:27;;;;;;;40.87;24.30;;;15.60;23.40;;;;;;4973728;28;20500;-73
2023/04/17 09:52:54;;;;;;;36.72;24.10;;;15.70;23.50;;;;;;4974289;28;20442;-73
2023/04/17 09:55:22;;;;;;;35.63;23.63;;;15.70;23.00;;;;;;4974806;28;20392;-73
2023/04/17 09:57:54;;;;;;;35.93;24.20;;;15.70;22.60;;;;;;4973384;28;20392;-73
2023/04/17 10:00:22;;;;;;;34.50;23.77;;;15.90;23.20;;;;;;4972976;28;20850;-73
2023/04/17 10:02:52;;;;;;;36.53;24.50;;;16.10;22.80;;;;;;4971805;28;20396;-72
2023/04/17 10:05:19;;;;;;;30.33;22.45;;;16.30;21.00;;;;;;4954495;28;20388;-73
2023/04/17 10:07:45;;;;;;;32.42;22.70;;;16.40;19.90;;;;;;4972065;28;20415;-72
2023/04/17 10:10:23;;;;;;;34.13;23.10;;;16.00;20.10;;;;;;4972026;28;20431;-72
2023/04/17 10:12:50;;;;;;;33.55;22.33;;;15.80;20.30;;;;;;4971321;28;20881;-72
2023/04/17 10:15:17;;;;;;;28.20;21.08;;;15.90;21.00;;;;;;4972131;28;20404;-73
2023/04/17 10:17:43;;;;;;;31.40;19.80;;;15.70;21.10;;;;;;4971753;28;20442;-72
2023/04/17 10:20:18;;;;;;;26.07;19.50;;;15.50;19.40;;;;;;4971991;28;20412;-73
2023/04/17 10:22:47;;;;;;;36.88;21.65;;;15.40;19.80;;;;;;4971055;28;20388;-72
2023/04/17 10:25:13;;;;;;;31.20;20.47;;;15.60;21.30;;;;;;4974828;28;20404;-73
2023/04/17 10:27:41;;;;;;;32.63;21.00;;;15.60;20.00;;;;;;4975623;28;20391;-73
2023/04/17 10:30:11;;;;;;;24.90;16.30;;;15.70;20.00;;;;;;4976395;28;20416;-73
2023/04/17 10:32:37;;;;;;;31.42;19.15;;;15.20;17.70;;;;;;4981088;28;20404;-73
2023/04/17 10:35:15;;;;;;;27.60;18.48;;;14.80;19.20;;;;;;4980461;28;20403;-73
2023/04/17 10:37:47;;;;;;;36.15;19.67;;;14.50;19.90;;;;;;4979948;28;20396;-73
2023/04/17 10:40:21;;;;;;;29.67;20.35;;;14.60;21.10;;;;;;4980687;28;20416;-73
2023/04/17 10:43:22;;;;;;;27.58;19.17;;;14.90;20.40;;;;;;4975379;28;20471;-73
2023/04/17 10:45:57;;;;;;;28.38;19.92;;;14.90;19.80;;;;;;4957901;28;20384;-74
2023/04/17 10:48:51;;;;;;;29.23;18.80;;;14.90;20.00;;;;;;4975055;28;20385;-74
2023/04/17 10:51:22;;;;;;;28.90;18.53;;;14.80;19.40;;;;;;4974244;28;20441;-74
2023/04/17 10:53:54;;;;;;;29.02;18.77;;;15.00;20.30;;;;;;4975044;28;20896;-74
2023/04/17 10:56:39;;;;;;;23.55;17.60;;;15.10;19.60;;;;;;4975624;28;20403;-73
2023/04/17 10:59:05;;;;;;;27.17;17.00;;;14.90;19.10;;;;;;4975597;28;20881;-74
2023/04/17 11:01:39;;;;;;;24.80;15.73;;;14.90;19.30;;;;;;4975049;28;20433;-73
2023/04/17 11:04:06;;;;;;;28.08;17.73;;;14.80;18.60;;;;;;4975193;28;20466;-74
2023/04/17 11:06:36;;;;;;;27.83;18.17;;;14.70;19.20;;;;;;4974936;28;20416;-73
2023/04/17 11:09:06;;;;;;;22.70;15.32;;;14.90;19.70;;;;;;4974744;28;20758;-73
2023/04/17 11:11:38;;;;;;;25.08;16.05;;;14.80;18.70;;;;;;4956783;28;20949;-73
2023/04/17 11:14:09;;;;;;;30.10;17.50;;;14.70;18.40;;;;;;4957717;28;20404;-73
2023/04/17 11:16:37;;;;;;;25.70;15.27;;;15.00;18.60;;;;;;4974213;28;20389;-73
2023/04/17 11:19:04;;;;;;;22.95;15.00;;;15.30;17.80;;;;;;4957144;28;20408;-73
2023/04/17 11:21:30;;;;;;;23.42;14.73;;;15.30;16.70;;;;;;4956914;28;20731;-72
2023/04/17 11:23:55;;;;;;;25.40;16.33;;;15.50;17.80;;;;;;4974766;28;20395;-73
2023/04/17 11:26:22;;;;;;;24.20;15.43;;;15.80;16.40;;;;;;4975849;28;20785;-72
2023/04/17 11:28:47;;;;;;;18.35;14.05;;;16.20;15.50;;;;;;4979777;28;20392;-73
2023/04/17 11:31:13;;;;;;;25.48;15.05;;;16.40;15.00;;;;;;4983489;28;20919;-73
2023/04/17 11:33:39;;;;;;;23.37;15.33;;;16.60;15.10;;;;;;4985176;28;20432;-73
2023/04/17 11:36:06;;;;;;;24.23;16.13;;;16.70;15.60;;;;;;4978879;28;20388;-73
2023/04/17 11:38:32;;;;;;;20.60;14.13;;;17.00;15.60;;;;;;4977872;28;20435;-73
2023/04/17 11:41:00;;;;;;;20.40;14.30;;;17.00;13.40;;;;;;4977036;28;20424;-73
2023/04/17 11:43:27;;;;;;;21.20;14.30;;;17.00;14.20;;;;;;4977939;28;20491;-74
2023/04/17 11:45:57;;;;;;;22.17;14.93;;;17.30;13.70;;;;;;4977122;28;20435;-73
2023/04/17 11:48:25;;;;;;;22.17;14.88;;;17.60;14.10;;;;;;4977704;28;20384;-73
2023/04/17 11:50:56;;;;;;;16.52;11.45;;;17.90;13.00;;;;;;4977638;28;20482;-72
2023/04/17 11:53:21;;;;;;;16.20;11.77;;;17.90;11.30;;;;;;4974857;28;20399;-73
2023/04/17 11:55:48;;;;;;;14.47;11.07;;;18.00;11.60;;;;;;4975646;28;20400;-73
2023/04/17 11:58:14;;;;;;;16.88;11.07;;;18.10;9.70;;;;;;4975169;28;20399;-72
2023/04/17 12:00:41;;;;;;;16.75;10.75;;;18.20;9.90;;;;;;4976313;28;20404;-72
2023/04/17 12:03:33;;;;;;;16.45;11.30;;;18.00;9.80;;;;;;4976999;28;21071;-73
2023/04/17 12:06:02;;;;;;;17.95;12.02;;;18.20;10.70;;;;;;4968491;28;20413;-72
2023/04/17 12:08:28;;;;;;;19.45;12.07;;;18.70;10.40;;;;;;4979194;28;20862;-75
2023/04/17 12:10:54;;;;;;;16.63;12.30;;;18.90;10.30;;;;;;4980744;28;20419;-72
2023/04/17 12:13:20;;;;;;;17.85;12.95;;;19.30;10.00;;;;;;4979966;28;20912;-73
2023/04/17 12:15:46;;;;;;;20.53;11.30;;;19.40;8.70;;;;;;4975724;28;20459;-72
2023/04/17 12:18:12;;;;;;;18.93;10.53;;;19.40;8.90;;;;;;4976295;28;20396;-72
2023/04/17 12:20:37;;;;;;;20.00;10.80;;;19.40;8.30;;;;;;4979995;28;20430;-73
2023/04/17 12:23:05;;;;;;;18.00;11.40;;;19.10;8.90;;;;;;4979174;28;20396;-72